Time;durP1;ratioP1;P1;durP2;ratioP2;P2;SDS_P1;SDS_P2;PMS_P1;PMS_P2;Temp;Humidity;BMP_temperature;BMP_pressure;BME280_temperature;BME280_humidity;BME280_pressure;Samples;Min_cycle;Max_cycle;Signal;HPM_P1;HPM_P2
2022/10/15 00:00:27;;;;;;;379.63;66.93;;;11.80;99.90;;;;;;4942473;28;20035;-89
2022/10/15 00:02:53;;;;;;;196.77;60.45;;;11.80;99.90;;;;;;4953643;28;20045;-88
2022/10/15 00:05:19;;;;;;;291.55;63.22;;;11.80;99.90;;;;;;4915397;28;20125;-88
2022/10/15 00:07:45;;;;;;;78.95;47.40;;;11.80;99.90;;;;;;4948963;28;20050;-87
2022/10/15 00:10:11;;;;;;;326.45;66.28;;;11.80;99.90;;;;;;4944164;28;20054;-88
2022/10/15 00:12:37;;;;;;;177.82;58.97;;;11.80;99.90;;;;;;4953623;28;20049;-88
2022/10/15 00:15:04;;;;;;;106.00;51.10;;;11.80;99.90;;;;;;4945571;28;20066;-87
2022/10/15 00:17:30;;;;;;;200.07;56.63;;;11.80;99.90;;;;;;4961847;28;20096;-88
2022/10/15 00:19:56;;;;;;;211.52;56.10;;;11.80;99.90;;;;;;4949825;28;20081;-88
2022/10/15 00:22:22;;;;;;;766.15;94.13;;;11.80;99.90;;;;;;4915810;28;20470;-88
2022/10/15 00:24:47;;;;;;;185.40;57.72;;;11.80;99.90;;;;;;4962476;28;20054;-88
2022/10/15 00:27:13;;;;;;;454.95;76.70;;;11.80;99.90;;;;;;4947286;28;20039;-87
2022/10/15 00:29:39;;;;;;;212.05;59.92;;;11.80;99.90;;;;;;4946116;28;20588;-87
2022/10/15 00:32:04;;;;;;;224.40;58.95;;;11.80;99.90;;;;;;4944594;28;20035;-88
2022/10/15 00:34:30;;;;;;;225.93;58.95;;;11.80;99.90;;;;;;4945575;28;20039;-88
2022/10/15 00:36:56;;;;;;;227.68;59.08;;;11.80;99.90;;;;;;4959276;28;20041;-87
2022/10/15 00:39:21;;;;;;;342.70;72.20;;;11.80;99.90;;;;;;4949171;28;20042;-88
2022/10/15 00:41:47;;;;;;;349.98;72.88;;;11.80;99.90;;;;;;4946652;28;20049;-88
2022/10/15 00:44:28;;;;;;;137.85;55.67;;;11.80;99.90;;;;;;4949078;28;20402;-88
2022/10/15 00:46:56;;;;;;;468.98;75.35;;;11.80;99.90;;;;;;4960629;28;20529;-87
2022/10/15 00:49:26;;;;;;;166.23;58.97;;;11.80;99.90;;;;;;4949408;28;20140;-88
2022/10/15 00:51:57;;;;;;;149.23;57.22;;;11.80;99.90;;;;;;4947818;28;20455;-88
2022/10/15 00:54:25;;;;;;;121.88;55.63;;;11.80;99.90;;;;;;4947180;28;20070;-88
2022/10/15 00:56:51;;;;;;;111.20;54.80;;;11.80;99.90;;;;;;4950455;28;20051;-88
2022/10/15 00:59:20;;;;;;;207.40;62.55;;;11.80;99.90;;;;;;4947014;28;20482;-87
2022/10/15 01:01:46;;;;;;;248.15;63.80;;;11.80;99.90;;;;;;4962982;28;20043;-88
2022/10/15 01:04:12;;;;;;;196.82;61.25;;;11.80;99.90;;;;;;4947373;28;20052;-88
2022/10/15 01:06:38;;;;;;;151.15;58.60;;;11.80;99.90;;;;;;4948633;28;20482;-87
2022/10/15 01:09:05;;;;;;;182.02;64.25;;;11.80;99.90;;;;;;4951842;28;20050;-87
2022/10/15 01:11:49;;;;;;;149.07;62.30;;;12.00;99.90;;;;;;4947930;28;20066;-88
2022/10/15 01:14:59;;;;;;;322.98;75.18;;;11.80;99.90;;;;;;4947837;28;20038;-87
2022/10/15 01:17:30;;;;;;;185.23;64.15;;;11.80;99.90;;;;;;4953069;28;20110;-88
2022/10/15 01:20:23;;;;;;;104.10;57.45;;;11.80;99.90;;;;;;4964703;28;20081;-87
2022/10/15 01:23:01;;;;;;;140.45;61.88;;;11.80;99.90;;;;;;4949211;28;20046;-87
2022/10/15 01:25:40;;;;;;;172.15;61.22;;;11.80;99.90;;;;;;4963182;28;20406;-88
2022/10/15 01:28:25;;;;;;;215.57;65.07;;;11.80;99.90;;;;;;4962452;28;20041;-87
2022/10/15 01:31:01;;;;;;;273.77;69.50;;;11.80;99.90;;;;;;4959583;28;20100;-87
2022/10/15 01:33:40;;;;;;;109.82;57.67;;;11.80;99.90;;;;;;4962333;28;20042;-88
2022/10/15 01:36:20;;;;;;;230.27;69.97;;;11.80;99.90;;;;;;4965245;28;20070;-88
2022/10/15 01:39:11;;;;;;;152.15;60.20;;;11.80;99.90;;;;;;4946186;28;20112;-88
2022/10/15 01:41:48;;;;;;;113.35;57.28;;;11.80;99.90;;;;;;4945809;28;20042;-88
2022/10/15 01:44:34;;;;;;;152.07;59.50;;;11.80;99.90;;;;;;4961790;28;20044;-87
2022/10/15 01:47:07;;;;;;;147.50;61.35;;;11.80;99.90;;;;;;4964597;28;20051;-87
2022/10/15 01:49:37;;;;;;;424.80;80.32;;;11.80;99.90;;;;;;4947313;28;20050;-88
2022/10/15 01:52:11;;;;;;;127.95;57.10;;;11.80;99.90;;;;;;4965348;28;20061;-88
2022/10/15 01:54:39;;;;;;;317.45;76.25;;;11.80;99.90;;;;;;4949262;28;20054;-88
2022/10/15 01:57:06;;;;;;;243.18;66.03;;;11.80;99.90;;;;;;4965523;28;20049;-88
2022/10/15 01:59:33;;;;;;;549.72;90.80;;;11.80;99.90;;;;;;4947161;28;20121;-88
2022/10/15 02:01:59;;;;;;;102.30;54.33;;;11.80;99.90;;;;;;4961501;28;20042;-88
2022/10/15 02:04:27;;;;;;;191.63;63.90;;;11.80;99.90;;;;;;4960809;28;20750;-88
2022/10/15 02:07:08;;;;;;;237.38;67.80;;;11.80;99.90;;;;;;4948614;28;20085;-88
2022/10/15 02:09:41;;;;;;;170.05;63.92;;;11.80;99.90;;;;;;4967818;28;20565;-87
2022/10/15 02:12:19;;;;;;;109.45;55.65;;;11.70;99.90;;;;;;4964924;28;20107;-88
2022/10/15 02:15:04;;;;;;;210.73;68.65;;;11.80;99.90;;;;;;4964536;28;20077;-88
2022/10/15 02:17:51;;;;;;;126.00;57.83;;;11.70;99.90;;;;;;4948140;28;20061;-88
2022/10/15 02:20:26;;;;;;;124.72;58.17;;;11.80;99.90;;;;;;4968385;28;20073;-88
2022/10/15 02:23:02;;;;;;;133.55;60.92;;;11.80;99.90;;;;;;4966335;28;20114;-88
2022/10/15 02:25:28;;;;;;;124.80;58.78;;;11.70;99.90;;;;;;4965536;28;20125;-88
2022/10/15 02:27:56;;;;;;;161.70;63.85;;;11.70;99.90;;;;;;4949049;28;20047;-87
2022/10/15 02:30:24;;;;;;;111.47;57.30;;;11.70;99.90;;;;;;4951482;28;20046;-88
2022/10/15 02:32:53;;;;;;;150.95;60.20;;;11.70;99.90;;;;;;4954144;28;20058;-89
2022/10/15 02:35:20;;;;;;;109.25;56.05;;;11.70;99.90;;;;;;4967031;28;20050;-87
2022/10/15 02:37:50;;;;;;;142.00;60.05;;;11.70;99.90;;;;;;4953658;28;20464;-87
2022/10/15 02:40:16;;;;;;;99.35;52.28;;;11.70;99.90;;;;;;4963862;28;20043;-88
2022/10/15 02:42:42;;;;;;;99.38;52.78;;;11.70;99.90;;;;;;4951647;28;20038;-88
2022/10/15 02:45:08;;;;;;;98.38;52.40;;;11.70;99.90;;;;;;4962400;28;20062;-89
2022/10/15 02:47:34;;;;;;;100.38;51.10;;;11.70;99.90;;;;;;4945478;28;20090;-87
2022/10/15 02:50:00;;;;;;;93.60;51.33;;;11.60;99.90;;;;;;4967586;28;20145;-88
2022/10/15 02:52:25;;;;;;;115.70;52.95;;;11.60;99.90;;;;;;4967355;28;20047;-88
2022/10/15 02:54:51;;;;;;;118.43;53.58;;;11.60;99.90;;;;;;4950286;28;20042;-88
2022/10/15 02:57:17;;;;;;;89.45;48.72;;;11.60;99.90;;;;;;4951073;28;20042;-88
2022/10/15 02:59:42;;;;;;;92.78;48.72;;;11.60;99.90;;;;;;4951880;28;20042;-87
2022/10/15 03:02:08;;;;;;;112.78;51.50;;;11.60;99.90;;;;;;4949026;28;20049;-88
2022/10/15 03:04:34;;;;;;;121.75;53.17;;;11.60;99.90;;;;;;4950897;28;20034;-88
2022/10/15 03:06:59;;;;;;;95.95;49.05;;;11.50;99.90;;;;;;4950326;28;20043;-88
2022/10/15 03:09:25;;;;;;;96.50;48.05;;;11.50;99.90;;;;;;4965837;28;20038;-87
2022/10/15 03:11:51;;;;;;;109.13;52.70;;;11.50;99.90;;;;;;4951255;28;20069;-88
2022/10/15 03:14:16;;;;;;;114.43;51.72;;;11.50;99.90;;;;;;4953549;28;20554;-87
2022/10/15 03:16:42;;;;;;;92.55;49.03;;;11.50;99.90;;;;;;4945410;28;20058;-89
2022/10/15 03:19:08;;;;;;;100.55;50.28;;;11.60;99.90;;;;;;4952493;28;20051;-88
2022/10/15 03:21:33;;;;;;;99.68;50.42;;;11.50;99.90;;;;;;4964122;28;20046;-88
2022/10/15 03:23:59;;;;;;;130.85;53.38;;;11.50;99.90;;;;;;4950940;28;20046;-88
2022/10/15 03:26:25;;;;;;;91.53;49.05;;;11.50;99.90;;;;;;4964642;28;20494;-87
2022/10/15 03:28:51;;;;;;;123.30;54.90;;;11.50;99.90;;;;;;4948633;28;20042;-88
2022/10/15 03:31:16;;;;;;;100.35;50.17;;;11.60;99.90;;;;;;4951797;28;20054;-88
2022/10/15 03:33:42;;;;;;;112.22;51.40;;;11.50;99.90;;;;;;4946782;28;20045;-88
2022/10/15 03:36:08;;;;;;;93.53;48.70;;;11.60;99.90;;;;;;4952287;28;20057;-88
2022/10/15 03:38:34;;;;;;;92.68;49.20;;;11.60;99.90;;;;;;4951992;28;20039;-87
2022/10/15 03:40:59;;;;;;;117.13;53.00;;;11.60;99.90;;;;;;4945239;28;20170;-87
2022/10/15 03:43:25;;;;;;;111.68;51.75;;;11.60;99.90;;;;;;4967707;28;20035;-88
2022/10/15 03:45:52;;;;;;;105.93;51.25;;;11.50;99.90;;;;;;4949909;28;20060;-88
2022/10/15 03:48:18;;;;;;;105.40;51.60;;;11.50;99.90;;;;;;4966418;28;20402;-88
2022/10/15 03:50:47;;;;;;;107.57;51.05;;;11.50;99.90;;;;;;4952956;28;20059;-88
2022/10/15 03:53:13;;;;;;;92.38;49.47;;;11.50;99.90;;;;;;4950393;28;20154;-88
2022/10/15 03:55:38;;;;;;;95.25;49.03;;;11.50;99.90;;;;;;4955201;28;20125;-88
2022/10/15 03:58:04;;;;;;;98.80;51.10;;;11.50;99.90;;;;;;4952112;28;20042;-88
2022/10/15 04:00:30;;;;;;;92.50;49.53;;;11.50;99.90;;;;;;4950872;28;20037;-88
2022/10/15 04:02:56;;;;;;;83.20;46.90;;;11.50;99.90;;;;;;4950023;28;20034;-88
2022/10/15 04:05:21;;;;;;;96.07;49.92;;;11.50;99.90;;;;;;4968304;28;20045;-88
2022/10/15 04:07:47;;;;;;;96.65;48.88;;;11.50;99.90;;;;;;4950075;28;20042;-89
2022/10/15 04:10:13;;;;;;;94.65;49.65;;;11.50;99.90;;;;;;4950855;28;20039;-89
2022/10/15 04:12:38;;;;;;;105.93;51.00;;;11.50;99.90;;;;;;4966211;28;20043;-88
2022/10/15 04:15:04;;;;;;;92.22;48.60;;;11.40;99.90;;;;;;4927986;28;20466;-88
2022/10/15 04:17:30;;;;;;;105.07;51.88;;;11.50;99.90;;;;;;4952496;28;20066;-88
2022/10/15 04:19:56;;;;;;;101.40;51.30;;;11.50;99.90;;;;;;4950029;28;20062;-88
2022/10/15 04:22:22;;;;;;;94.03;49.92;;;11.50;99.90;;;;;;4946929;28;20038;-88
2022/10/15 04:24:47;;;;;;;106.20;51.67;;;11.50;99.90;;;;;;4952464;28;20423;-88
2022/10/15 04:27:13;;;;;;;90.30;48.67;;;11.50;99.90;;;;;;4952343;28;20391;-87
2022/10/15 04:29:39;;;;;;;95.72;49.28;;;11.30;99.90;;;;;;4945151;28;20046;-88
2022/10/15 04:32:05;;;;;;;89.57;49.63;;;11.50;99.90;;;;;;4953673;28;20035;-88
2022/10/15 04:34:31;;;;;;;104.05;53.90;;;11.50;99.90;;;;;;4950364;28;20509;-88
2022/10/15 04:36:56;;;;;;;95.72;50.40;;;11.50;99.90;;;;;;4942205;28;20039;-88
2022/10/15 04:39:22;;;;;;;83.05;48.30;;;11.50;99.90;;;;;;4968549;28;20042;-88
2022/10/15 04:41:48;;;;;;;90.03;49.75;;;11.40;99.90;;;;;;4945592;28;20046;-88
2022/10/15 04:44:13;;;;;;;89.47;50.40;;;11.40;99.90;;;;;;4933431;28;20064;-88
2022/10/15 04:46:39;;;;;;;98.97;52.28;;;11.40;99.90;;;;;;4952513;28;20042;-88
2022/10/15 04:49:05;;;;;;;73.78;45.72;;;11.30;99.90;;;;;;4946365;28;20042;-88
2022/10/15 04:51:31;;;;;;;93.32;50.25;;;11.30;99.90;;;;;;4944690;28;20544;-87
2022/10/15 04:53:56;;;;;;;86.53;48.45;;;11.30;99.90;;;;;;4943331;28;20050;-88
2022/10/15 04:56:22;;;;;;;67.97;43.00;;;11.20;99.90;;;;;;4963103;28;20038;-88
2022/10/15 04:58:49;;;;;;;108.15;52.92;;;11.20;99.90;;;;;;4941106;28;20113;-87
2022/10/15 05:01:18;;;;;;;76.43;47.30;;;11.20;99.90;;;;;;4929370;28;20061;-88
2022/10/15 05:03:45;;;;;;;78.15;46.65;;;11.20;99.90;;;;;;4952266;28;20050;-88
2022/10/15 05:06:14;;;;;;;94.35;50.60;;;11.20;99.90;;;;;;4943349;28;20042;-88
2022/10/15 05:08:43;;;;;;;120.90;53.70;;;11.10;99.90;;;;;;4957849;28;20498;-88
2022/10/15 05:11:20;;;;;;;109.13;54.22;;;11.10;99.90;;;;;;4943329;28;20126;-88
2022/10/15 05:13:46;;;;;;;100.80;52.13;;;11.10;99.90;;;;;;4947729;28;20157;-88
2022/10/15 05:16:15;;;;;;;107.65;53.05;;;11.10;99.90;;;;;;4940530;28;20130;-88
2022/10/15 05:18:43;;;;;;;103.07;53.22;;;11.10;99.90;;;;;;4962162;28;20051;-88
2022/10/15 05:21:09;;;;;;;100.63;52.00;;;11.10;99.90;;;;;;4947154;28;20039;-88
2022/10/15 05:23:35;;;;;;;103.93;51.75;;;11.10;99.90;;;;;;4958943;28;20086;-88
2022/10/15 05:26:03;;;;;;;98.10;51.90;;;11.10;99.90;;;;;;4940177;28;20043;-88
2022/10/15 05:28:30;;;;;;;93.28;52.25;;;11.10;99.90;;;;;;4958244;28;20049;-88
2022/10/15 05:30:56;;;;;;;102.03;53.55;;;11.10;99.90;;;;;;4949673;28;20073;-89
2022/10/15 05:33:22;;;;;;;116.35;56.00;;;11.10;99.90;;;;;;4945098;29;20051;-88
2022/10/15 05:35:47;;;;;;;125.95;58.75;;;11.10;99.90;;;;;;4909145;28;20054;-88
2022/10/15 05:38:13;;;;;;;91.97;52.03;;;11.10;99.90;;;;;;4964447;28;20042;-87
2022/10/15 05:40:39;;;;;;;125.10;57.50;;;11.20;99.90;;;;;;4942615;29;20070;-88
2022/10/15 05:43:04;;;;;;;102.53;54.28;;;11.20;99.90;;;;;;4945224;28;20039;-88
2022/10/15 05:45:30;;;;;;;89.85;50.78;;;11.20;99.90;;;;;;4957222;28;20490;-87
2022/10/15 05:47:56;;;;;;;112.82;56.35;;;11.20;99.90;;;;;;4965363;28;20047;-88
2022/10/15 05:50:22;;;;;;;104.10;54.67;;;11.20;99.90;;;;;;4953728;28;20047;-88
2022/10/15 05:52:48;;;;;;;120.85;58.85;;;11.20;99.90;;;;;;4948818;28;20508;-88
2022/10/15 05:55:14;;;;;;;135.02;59.70;;;11.20;99.90;;;;;;4951962;28;20108;-88
2022/10/15 05:57:40;;;;;;;110.00;54.88;;;11.20;99.90;;;;;;4953833;28;20040;-88
2022/10/15 06:00:07;;;;;;;111.40;56.72;;;11.20;99.90;;;;;;4940830;29;20039;-88
2022/10/15 06:02:32;;;;;;;106.57;55.22;;;11.20;99.90;;;;;;4945111;28;20484;-88
2022/10/15 06:04:58;;;;;;;91.25;51.28;;;11.20;99.90;;;;;;4942687;28;20098;-88
2022/10/15 06:07:24;;;;;;;127.82;58.90;;;11.20;99.90;;;;;;4948863;28;20414;-88
2022/10/15 06:09:50;;;;;;;129.43;59.70;;;11.20;99.90;;;;;;4961748;28;20078;-88
2022/10/15 06:12:16;;;;;;;112.57;57.50;;;11.20;99.90;;;;;;4928606;28;20051;-88
2022/10/15 06:14:42;;;;;;;142.63;63.92;;;11.20;99.90;;;;;;4945713;28;20941;-87
2022/10/15 06:17:07;;;;;;;133.60;61.17;;;11.20;99.90;;;;;;4946327;28;20383;-88
2022/10/15 06:19:33;;;;;;;120.40;58.63;;;11.20;99.90;;;;;;4928958;28;20039;-88
2022/10/15 06:21:58;;;;;;;119.05;58.20;;;11.20;99.90;;;;;;4962774;28;20058;-89
2022/10/15 06:24:24;;;;;;;120.03;59.35;;;11.20;99.90;;;;;;4946662;28;20953;-88
2022/10/15 06:26:50;;;;;;;133.73;61.45;;;11.30;99.90;;;;;;4954107;28;20133;-88
2022/10/15 06:29:15;;;;;;;144.50;63.80;;;11.30;99.90;;;;;;4948290;28;20046;-88
2022/10/15 06:31:41;;;;;;;121.28;58.33;;;11.30;99.90;;;;;;4952944;28;20046;-88
2022/10/15 06:34:07;;;;;;;124.80;59.45;;;11.30;99.90;;;;;;4954255;28;20042;-88
2022/10/15 06:36:32;;;;;;;125.55;59.47;;;11.30;99.90;;;;;;4965674;28;20093;-88
2022/10/15 06:38:58;;;;;;;124.53;59.65;;;11.40;99.90;;;;;;4949678;28;20104;-88
2022/10/15 06:41:24;;;;;;;129.27;60.63;;;11.40;99.90;;;;;;4931646;28;20125;-88
2022/10/15 06:43:50;;;;;;;135.35;60.75;;;11.40;99.90;;;;;;4955953;28;20039;-88
2022/10/15 06:46:15;;;;;;;130.70;60.22;;;11.40;99.90;;;;;;4964166;28;20049;-88
2022/10/15 06:48:41;;;;;;;128.18;60.33;;;11.50;99.90;;;;;;4940003;28;20109;-88
2022/10/15 06:51:07;;;;;;;133.75;60.92;;;11.50;99.90;;;;;;4944709;28;20039;-89
2022/10/15 06:53:33;;;;;;;122.07;59.67;;;11.50;99.90;;;;;;4946204;28;20031;-88
2022/10/15 06:56:00;;;;;;;125.00;59.50;;;11.60;99.90;;;;;;4955929;28;20116;-88
2022/10/15 06:58:26;;;;;;;116.63;57.90;;;11.60;99.90;;;;;;4949744;28;20085;-87
2022/10/15 07:00:52;;;;;;;122.65;60.88;;;11.60;99.90;;;;;;4919330;28;20092;-88
2022/10/15 07:03:18;;;;;;;128.80;62.47;;;11.70;99.90;;;;;;4927999;28;20043;-88
2022/10/15 07:05:44;;;;;;;119.50;59.17;;;11.70;99.90;;;;;;4940031;28;20050;-88
2022/10/15 07:08:09;;;;;;;119.72;59.47;;;11.80;99.90;;;;;;4957799;28;20038;-89
2022/10/15 07:10:35;;;;;;;120.55;59.35;;;11.80;99.90;;;;;;4943461;28;20094;-88
2022/10/15 07:13:01;;;;;;;108.47;57.35;;;11.80;99.90;;;;;;4960059;28;20101;-88
2022/10/15 07:15:28;;;;;;;113.20;57.30;;;11.90;99.90;;;;;;4932614;28;20038;-88
2022/10/15 07:18:01;;;;;;;105.55;56.08;;;11.90;99.90;;;;;;4946389;28;20051;-88
2022/10/15 07:20:30;;;;;;;107.20;54.65;;;11.90;99.90;;;;;;4925200;28;20060;-88
2022/10/15 07:23:00;;;;;;;113.45;57.33;;;11.90;99.90;;;;;;4949932;28;20038;-88
2022/10/15 07:25:27;;;;;;;106.72;57.60;;;12.00;99.90;;;;;;4949298;28;20510;-88
2022/10/15 07:27:54;;;;;;;116.35;59.22;;;12.00;99.90;;;;;;4961623;28;20046;-88
2022/10/15 07:30:21;;;;;;;108.32;57.58;;;12.00;99.90;;;;;;4947575;28;20054;-88
2022/10/15 07:32:47;;;;;;;108.57;57.05;;;12.10;99.90;;;;;;4964513;28;20042;-88
2022/10/15 07:35:13;;;;;;;107.18;58.00;;;12.10;99.90;;;;;;4962795;28;20043;-87
2022/10/15 07:37:39;;;;;;;106.75;58.20;;;12.20;99.90;;;;;;4947176;28;20046;-88
2022/10/15 07:40:05;;;;;;;110.50;58.60;;;12.20;99.90;;;;;;4937340;28;20039;-88
2022/10/15 07:42:31;;;;;;;101.15;56.50;;;12.30;99.90;;;;;;4940733;28;20064;-87
2022/10/15 07:44:58;;;;;;;101.70;58.65;;;12.40;99.90;;;;;;4956301;28;20074;-87
2022/10/15 07:47:23;;;;;;;102.35;57.00;;;12.40;99.90;;;;;;4933312;28;20027;-88
2022/10/15 07:49:49;;;;;;;92.35;55.28;;;12.50;99.90;;;;;;4926948;28;20134;-88
2022/10/15 07:52:15;;;;;;;102.45;59.00;;;12.50;99.90;;;;;;4940616;28;20039;-88
2022/10/15 07:54:40;;;;;;;102.10;58.55;;;12.60;99.90;;;;;;4939027;28;20067;-88
2022/10/15 07:57:06;;;;;;;98.32;57.33;;;12.60;99.90;;;;;;4941393;28;20035;-88
2022/10/15 07:59:33;;;;;;;102.97;59.50;;;12.70;99.90;;;;;;4941872;28;20035;-88
2022/10/15 08:01:58;;;;;;;94.18;56.90;;;12.80;99.90;;;;;;4942334;28;20687;-88
2022/10/15 08:04:24;;;;;;;100.40;61.53;;;12.90;99.90;;;;;;4945255;28;20035;-88
2022/10/15 08:06:50;;;;;;;94.85;56.75;;;13.00;99.90;;;;;;4949991;28;20493;-88
2022/10/15 08:09:16;;;;;;;112.20;62.67;;;13.10;99.90;;;;;;4961579;28;20043;-88
2022/10/15 08:11:42;;;;;;;97.63;58.88;;;13.10;99.90;;;;;;4947907;28;20046;-88
2022/10/15 08:14:07;;;;;;;88.95;55.45;;;13.20;99.90;;;;;;4941688;28;20049;-88
2022/10/15 08:16:33;;;;;;;84.55;57.67;;;13.30;99.90;;;;;;4944760;28;20035;-89
2022/10/15 08:18:59;;;;;;;94.70;58.35;;;13.30;99.90;;;;;;4952018;28;20058;-88
2022/10/15 08:21:25;;;;;;;83.43;55.00;;;13.40;99.90;;;;;;4957654;28;20043;-88
2022/10/15 08:23:51;;;;;;;78.25;53.05;;;13.40;99.90;;;;;;4950296;28;20035;-88
2022/10/15 08:26:17;;;;;;;82.70;55.10;;;13.50;99.90;;;;;;4939009;28;20039;-88
2022/10/15 08:28:43;;;;;;;88.88;56.80;;;13.60;99.90;;;;;;4956710;28;20039;-89
2022/10/15 08:31:09;;;;;;;82.30;55.42;;;13.60;99.90;;;;;;4958406;28;20042;-88
2022/10/15 08:33:36;;;;;;;82.00;55.65;;;13.70;99.90;;;;;;4935186;28;20486;-87
2022/10/15 08:36:04;;;;;;;76.28;53.83;;;13.70;99.90;;;;;;4937177;28;20735;-87
2022/10/15 08:38:30;;;;;;;76.40;54.17;;;13.80;99.90;;;;;;4928130;28;20250;-88
2022/10/15 08:40:58;;;;;;;82.30;57.08;;;13.80;99.90;;;;;;4924245;28;20114;-87
2022/10/15 08:43:32;;;;;;;73.88;51.88;;;13.90;99.90;;;;;;4949804;28;20062;-88
2022/10/15 08:46:01;;;;;;;63.80;48.60;;;14.00;99.90;;;;;;4961290;28;20134;-88
2022/10/15 08:48:35;;;;;;;75.13;54.00;;;14.10;99.90;;;;;;4957203;28;20042;-87
2022/10/15 08:51:07;;;;;;;70.13;52.28;;;14.20;99.90;;;;;;4944327;28;20035;-88
2022/10/15 08:53:44;;;;;;;67.78;52.33;;;14.20;99.90;;;;;;4943881;28;20100;-88
2022/10/15 08:56:33;;;;;;;68.53;50.97;;;14.30;99.90;;;;;;4956800;28;20401;-89
2022/10/15 08:59:37;;;;;;;71.43;51.80;;;14.40;99.90;;;;;;4952051;28;20542;-88
2022/10/15 09:02:18;;;;;;;71.47;51.67;;;14.50;99.90;;;;;;4945561;28;20047;-88
2022/10/15 09:05:25;;;;;;;69.47;51.85;;;14.50;99.90;;;;;;4956502;28;20043;-89
2022/10/15 09:07:55;;;;;;;66.90;48.72;;;14.50;99.90;;;;;;4922299;28;20057;-88
2022/10/15 09:10:38;;;;;;;63.92;48.00;;;14.50;99.90;;;;;;4958314;28;20037;-88
2022/10/15 09:13:27;;;;;;;61.72;46.58;;;14.50;99.90;;;;;;4941395;28;20046;-89
2022/10/15 09:15:57;;;;;;;58.10;44.42;;;14.50;99.90;;;;;;4952270;28;20039;-88
2022/10/15 09:18:26;;;;;;;60.05;45.97;;;14.40;99.90;;;;;;4953078;28;20087;-88
2022/10/15 09:20:53;;;;;;;61.67;45.22;;;14.30;99.90;;;;;;4948868;28;20119;-88
2022/10/15 09:23:23;;;;;;;61.40;44.75;;;14.30;99.90;;;;;;4937279;28;20039;-89
2022/10/15 09:26:05;;;;;;;55.30;41.10;;;14.20;99.90;;;;;;4952171;28;20565;-89
2022/10/15 09:28:42;;;;;;;59.15;43.88;;;14.10;99.90;;;;;;4930546;28;20103;-89
2022/10/15 09:31:13;;;;;;;63.20;43.25;;;14.00;99.90;;;;;;4937015;28;20097;-88
2022/10/15 09:33:45;;;;;;;61.60;43.10;;;14.00;99.90;;;;;;4948076;28;20049;-88
2022/10/15 09:36:29;;;;;;;65.03;45.47;;;13.90;99.90;;;;;;4932422;28;20059;-88
2022/10/15 09:39:33;;;;;;;65.50;42.92;;;13.90;99.90;;;;;;4945654;28;20058;-88
2022/10/15 09:42:22;;;;;;;60.90;43.88;;;13.80;99.90;;;;;;4936280;28;20051;-88
2022/10/15 09:44:50;;;;;;;61.08;41.13;;;13.80;99.90;;;;;;4943299;28;20138;-88
2022/10/15 09:47:29;;;;;;;57.90;40.00;;;13.80;99.90;;;;;;4933272;28;20403;-89
2022/10/15 09:49:55;;;;;;;62.47;41.35;;;13.70;99.90;;;;;;4936080;28;20503;-88
2022/10/15 09:52:26;;;;;;;71.20;45.72;;;13.70;99.90;;;;;;4934651;28;20192;-88
2022/10/15 09:55:42;;;;;;;63.42;42.92;;;13.70;99.90;;;;;;4954194;28;20044;-89
2022/10/15 09:58:17;;;;;;;72.97;45.95;;;13.60;99.90;;;;;;4915807;28;20130;-88
2022/10/15 10:00:56;;;;;;;65.57;43.22;;;13.70;99.90;;;;;;4945866;28;20098;-88
2022/10/15 10:03:26;;;;;;;61.05;40.10;;;13.60;99.90;;;;;;4936659;28;20058;-89
2022/10/15 10:06:00;;;;;;;67.55;43.28;;;13.60;99.90;;;;;;4934906;29;20039;-88
2022/10/15 10:08:31;;;;;;;61.88;41.38;;;13.60;99.90;;;;;;4951313;28;20047;-88
2022/10/15 10:11:06;;;;;;;65.80;43.30;;;13.60;99.90;;;;;;4954378;28;20097;-88
2022/10/15 10:13:48;;;;;;;65.45;41.30;;;13.60;99.90;;;;;;4952776;28;20039;-88
2022/10/15 10:16:16;;;;;;;61.72;41.35;;;13.60;99.90;;;;;;4939548;28;20078;-88
2022/10/15 10:18:49;;;;;;;63.97;42.58;;;13.60;99.90;;;;;;4954350;28;20063;-88
2022/10/15 10:21:27;;;;;;;62.05;41.90;;;13.60;99.90;;;;;;4925798;28;20035;-88
2022/10/15 10:23:53;;;;;;;63.17;42.05;;;13.70;99.90;;;;;;4934222;28;20074;-88
2022/10/15 10:26:19;;;;;;;64.18;41.90;;;13.80;99.90;;;;;;4953335;28;20083;-88
2022/10/15 10:28:48;;;;;;;52.33;37.88;;;13.80;99.90;;;;;;4928664;28;20692;-88
2022/10/15 10:31:14;;;;;;;56.50;39.83;;;13.90;99.90;;;;;;4963571;28;20039;-88
2022/10/15 10:33:48;;;;;;;52.15;37.00;;;13.90;99.90;;;;;;4951324;28;20048;-88
2022/10/15 10:36:34;;;;;;;50.95;35.58;;;14.00;99.90;;;;;;4943191;29;20113;-89
2022/10/15 10:38:59;;;;;;;44.90;34.22;;;14.10;99.90;;;;;;4939359;28;20499;-88
2022/10/15 10:41:49;;;;;;;47.70;34.60;;;14.20;99.90;;;;;;4942882;28;20046;-88
2022/10/15 10:44:45;;;;;;;45.95;34.25;;;14.30;99.90;;;;;;4958692;28;20040;-89
2022/10/15 10:47:20;;;;;;;48.10;33.35;;;14.30;99.90;;;;;;4922362;29;20063;-88
2022/10/15 10:49:48;;;;;;;42.97;33.00;;;14.40;99.90;;;;;;4951793;28;20042;-88
2022/10/15 10:52:30;;;;;;;42.25;32.45;;;14.50;99.90;;;;;;4943570;28;20130;-88
2022/10/15 10:55:05;;;;;;;41.90;31.73;;;14.50;99.90;;;;;;4963877;28;20494;-88
2022/10/15 10:57:48;;;;;;;39.17;31.20;;;14.60;99.90;;;;;;4961692;28;20078;-89
2022/10/15 11:00:21;;;;;;;40.33;31.52;;;14.70;99.90;;;;;;4946229;28;20495;-89
2022/10/15 11:02:47;;;;;;;38.47;30.25;;;14.80;99.90;;;;;;4955886;28;20034;-89
2022/10/15 11:05:18;;;;;;;37.90;29.77;;;15.00;99.90;;;;;;4938114;29;20055;-88
2022/10/15 11:08:09;;;;;;;36.15;28.38;;;15.10;99.90;;;;;;4940985;28;20380;-88
2022/10/15 11:11:02;;;;;;;34.45;27.63;;;15.10;99.90;;;;;;4936280;29;20054;-88
2022/10/15 11:13:57;;;;;;;32.75;26.08;;;15.20;99.90;;;;;;4936308;28;20039;-89
2022/10/15 11:16:50;;;;;;;33.28;25.00;;;15.20;99.90;;;;;;4956871;28;20040;-88
2022/10/15 11:19:36;;;;;;;28.90;23.27;;;15.30;99.90;;;;;;4939800;28;20477;-88
2022/10/15 11:22:05;;;;;;;27.75;22.13;;;15.30;99.90;;;;;;4960043;28;20509;-88
2022/10/15 11:24:48;;;;;;;25.65;21.60;;;15.20;99.90;;;;;;4941086;28;20094;-88
2022/10/15 11:27:38;;;;;;;26.58;21.70;;;15.20;99.90;;;;;;4951276;28;20039;-88
2022/10/15 11:30:12;;;;;;;26.70;22.50;;;15.10;99.90;;;;;;4953174;28;20042;-88
2022/10/15 11:33:07;;;;;;;26.33;21.50;;;15.20;99.90;;;;;;4945811;28;20046;-88
2022/10/15 11:35:35;;;;;;;27.02;21.95;;;15.20;99.90;;;;;;4954576;28;20039;-89
2022/10/15 11:38:18;;;;;;;28.55;22.17;;;15.20;99.90;;;;;;4950315;28;20062;-88
2022/10/15 11:41:18;;;;;;;27.20;21.55;;;15.10;99.90;;;;;;4945300;28;20071;-89
2022/10/15 11:44:05;;;;;;;24.10;20.05;;;15.10;99.90;;;;;;4948023;28;20035;-88
2022/10/15 11:46:52;;;;;;;29.33;22.38;;;15.20;99.90;;;;;;4931249;28;20123;-88
2022/10/15 11:49:38;;;;;;;25.35;19.33;;;15.20;99.90;;;;;;4948019;28;20046;-88
2022/10/15 11:52:41;;;;;;;25.63;19.60;;;15.20;99.90;;;;;;4899552;28;20137;-89
2022/10/15 11:55:36;;;;;;;23.90;19.38;;;15.30;99.90;;;;;;4955592;28;20074;-88
2022/10/15 11:58:10;;;;;;;23.75;19.50;;;15.30;99.90;;;;;;4954611;28;20043;-88
2022/10/15 12:00:44;;;;;;;21.10;17.50;;;15.30;99.90;;;;;;4951772;28;20038;-88
2022/10/15 12:03:17;;;;;;;22.90;18.50;;;15.30;99.90;;;;;;4974757;28;20512;-89
2022/10/15 12:05:49;;;;;;;19.30;16.20;;;15.30;99.90;;;;;;4950587;28;20035;-88
2022/10/15 12:08:16;;;;;;;20.60;17.02;;;15.40;99.90;;;;;;4958650;28;20066;-88
2022/10/15 12:11:04;;;;;;;21.10;16.75;;;15.40;99.90;;;;;;4953641;28;20042;-88
2022/10/15 12:13:51;;;;;;;22.40;16.70;;;15.40;99.90;;;;;;4943513;28;20050;-88
2022/10/15 12:16:35;;;;;;;22.05;18.02;;;15.50;99.90;;;;;;4968652;28;20072;-88
2022/10/15 12:19:33;;;;;;;21.45;17.55;;;15.50;99.90;;;;;;4948865;28;20043;-88
2022/10/15 12:22:05;;;;;;;24.15;17.80;;;15.60;99.90;;;;;;4957063;28;20043;-88
2022/10/15 12:24:37;;;;;;;20.40;16.80;;;15.60;99.90;;;;;;4946681;29;20510;-89
2022/10/15 12:27:18;;;;;;;21.63;18.02;;;15.70;99.90;;;;;;4943710;28;20130;-88
2022/10/15 12:30:06;;;;;;;21.25;16.73;;;15.70;99.90;;;;;;4955097;28;20046;-88
2022/10/15 12:32:42;;;;;;;22.05;17.58;;;15.60;99.90;;;;;;4955720;28;20050;-88
2022/10/15 12:35:13;;;;;;;23.63;19.00;;;15.50;99.90;;;;;;4958712;28;20058;-88
2022/10/15 12:37:41;;;;;;;24.33;17.73;;;15.50;99.90;;;;;;4974811;28;20097;-89
2022/10/15 12:40:28;;;;;;;27.08;20.10;;;15.50;99.90;;;;;;4946367;28;20126;-88
2022/10/15 12:43:01;;;;;;;24.38;19.25;;;15.50;99.90;;;;;;4972094;28;20043;-88